Time;durP1;ratioP1;P1;durP2;ratioP2;P2;SDS_P1;SDS_P2;PMS_P1;PMS_P2;Temp;Humidity;BMP_temperature;BMP_pressure;BME280_temperature;BME280_humidity;BME280_pressure;Samples;Min_cycle;Max_cycle;Signal;HPM_P1;HPM_P2
2022/06/02 00:00:40;;;;;;;12.77;7.10;;;;;;;;;;5021446;28;20045;-80
2022/06/02 00:03:43;;;;;;;12.65;7.05;;;;;;;;;;5015142;28;20054;-79
2022/06/02 00:06:55;;;;;;;11.65;7.68;;;;;;;;;;5015182;28;20049;-80
2022/06/02 00:10:20;;;;;;;14.73;8.05;;;;;;;;;;5014684;28;20066;-80
2022/06/02 00:13:20;;;;;;;15.38;6.90;;;;;;;;;;5021062;28;20046;-80
2022/06/02 00:16:12;;;;;;;11.27;6.47;;;;;;;;;;5014549;28;20050;-81
2022/06/02 00:19:18;;;;;;;9.35;6.32;;;;;;;;;;5014110;28;20395;-81
2022/06/02 00:22:16;;;;;;;13.57;6.03;;;;;;;;;;5014920;28;20054;-80
2022/06/02 00:25:28;;;;;;;10.88;5.95;;;;;;;;;;5014380;28;20057;-82
2022/06/02 00:28:34;;;;;;;11.02;5.57;;;;;;;;;;5007767;28;20037;-82
2022/06/02 00:31:45;;;;;;;10.02;6.07;;;;;;;;;;5034831;28;20050;-80
2022/06/02 00:34:30;;;;;;;11.43;6.28;;;;;;;;;;5021592;28;20054;-81
2022/06/02 00:37:28;;;;;;;9.10;6.00;;;;;;;;;;5013870;28;20045;-81
2022/06/02 00:40:15;;;;;;;13.52;5.60;;;;;;;;;;5014704;28;20069;-82
2022/06/02 00:43:05;;;;;;;12.10;6.00;;;;;;;;;;5060409;22;20056;-83
2022/06/02 00:46:15;;;;;;;7.13;5.82;;;;;;;;;;5051659;28;20041;-86
2022/06/02 00:49:19;;;;;;;11.38;6.55;;;;;;;;;;5066892;28;20048;-85
2022/06/02 00:52:11;;;;;;;12.32;6.07;;;;;;;;;;5059849;28;20045;-83
2022/06/02 00:58:50;;;;;;;9.75;6.40;;;;;;;;;;5059436;28;20048;-86
2022/06/02 01:01:37;;;;;;;10.38;6.28;;;;;;;;;;5056854;28;20045;-81
2022/06/02 01:04:22;;;;;;;10.15;6.30;;;;;;;;;;5053469;28;20053;-85
2022/06/02 01:07:27;;;;;;;9.98;6.30;;;;;;;;;;5053524;28;20048;-82
2022/06/02 01:10:38;;;;;;;11.95;6.70;;;;;;;;;;5053768;28;20045;-85
2022/06/02 01:13:48;;;;;;;11.85;6.30;;;;;;;;;;5060173;28;20404;-85
2022/06/02 01:16:44;;;;;;;14.70;7.25;;;;;;;;;;5053879;28;20041;-82
2022/06/02 01:19:35;;;;;;;15.68;7.30;;;;;;;;;;5053492;28;20049;-83
2022/06/02 01:22:55;;;;;;;11.32;7.03;;;;;;;;;;5038312;28;20045;-82
2022/06/02 01:25:49;;;;;;;12.18;7.07;;;;;;;;;;5053614;28;20049;-84
2022/06/02 01:28:57;;;;;;;12.25;7.40;;;;;;;;;;5059813;28;20405;-82
2022/06/02 01:31:43;;;;;;;9.40;6.78;;;;;;;;;;5057031;28;20128;-84
2022/06/02 01:34:43;;;;;;;9.10;6.70;;;;;;;;;;5057211;28;20045;-83
2022/06/02 01:37:41;;;;;;;11.88;6.90;;;;;;;;;;5063573;28;20413;-84
2022/06/02 01:40:38;;;;;;;9.95;7.15;;;;;;;;;;5057142;28;20044;-82
2022/06/02 01:43:39;;;;;;;12.68;6.95;;;;;;;;;;5057275;28;20052;-83
2022/06/02 01:46:46;;;;;;;9.68;6.60;;;;;;;;;;5063912;28;20049;-83
2022/06/02 01:49:56;;;;;;;12.45;7.65;;;;;;;;;;5056754;28;20037;-83
2022/06/02 01:52:47;;;;;;;9.55;7.25;;;;;;;;;;5056988;28;20049;-84
2022/06/02 01:55:42;;;;;;;11.77;7.47;;;;;;;;;;5057215;28;20060;-84
2022/06/02 01:58:39;;;;;;;10.60;7.30;;;;;;;;;;5057015;28;20473;-82
2022/06/02 02:01:33;;;;;;;9.40;6.45;;;;;;;;;;5063808;28;20044;-84
2022/06/02 02:04:46;;;;;;;11.10;7.00;;;;;;;;;;5057734;28;20053;-83
2022/06/02 02:07:54;;;;;;;10.85;6.57;;;;;;;;;;5057917;28;20061;-85
2022/06/02 02:11:13;;;;;;;14.75;6.90;;;;;;;;;;5057631;28;20053;-84
2022/06/02 02:14:22;;;;;;;10.50;6.28;;;;;;;;;;5049735;28;20481;-85
2022/06/02 02:17:52;;;;;;;9.32;6.40;;;;;;;;;;5056713;28;20068;-84
2022/06/02 02:20:57;;;;;;;11.05;6.70;;;;;;;;;;5023350;28;20045;-84
2022/06/02 02:24:15;;;;;;;13.00;7.30;;;;;;;;;;5056658;28;20045;-85
2022/06/02 02:27:16;;;;;;;11.48;7.10;;;;;;;;;;5048572;28;20048;-83
2022/06/02 02:30:11;;;;;;;12.93;6.80;;;;;;;;;;5034587;28;20045;-83
2022/06/02 02:33:31;;;;;;;12.10;7.20;;;;;;;;;;5056118;28;20045;-84
2022/06/02 02:37:05;;;;;;;9.43;6.35;;;;;;;;;;5056195;28;20045;-85
2022/06/02 02:40:19;;;;;;;10.63;7.72;;;;;;;;;;5021756;28;20473;-83
2022/06/02 02:43:12;;;;;;;10.70;6.82;;;;;;;;;;5050038;28;20053;-84
2022/06/02 02:46:09;;;;;;;9.95;6.70;;;;;;;;;;5055850;28;20056;-84
2022/06/02 02:49:12;;;;;;;9.43;6.60;;;;;;;;;;5048520;28;20048;-85
2022/06/02 02:52:13;;;;;;;18.13;7.35;;;;;;;;;;5056886;28;20053;-83
2022/06/02 02:55:06;;;;;;;13.20;7.45;;;;;;;;;;5041758;28;20045;-82
2022/06/02 02:58:16;;;;;;;12.50;7.25;;;;;;;;;;5056375;28;20049;-81
2022/06/02 03:01:13;;;;;;;13.30;7.97;;;;;;;;;;5040485;28;20044;-82
2022/06/02 03:04:13;;;;;;;16.33;7.60;;;;;;;;;;5047470;28;20037;-82
2022/06/02 03:06:59;;;;;;;14.07;7.25;;;;;;;;;;5062101;28;20045;-83
2022/06/02 03:10:27;;;;;;;17.70;6.72;;;;;;;;;;5055820;28;20049;-83
2022/06/02 03:13:12;;;;;;;13.30;7.20;;;;;;;;;;5027945;28;20049;-82
2022/06/02 03:16:07;;;;;;;9.05;6.93;;;;;;;;;;5055652;28;20033;-82
2022/06/02 03:19:02;;;;;;;10.93;7.43;;;;;;;;;;5040642;28;20049;-85
2022/06/02 03:22:07;;;;;;;11.18;7.22;;;;;;;;;;5055307;28;20512;-83
2022/06/02 03:25:07;;;;;;;17.65;7.90;;;;;;;;;;5055480;28;20049;-82
2022/06/02 03:28:14;;;;;;;15.18;7.90;;;;;;;;;;5046767;28;20052;-83
2022/06/02 03:31:07;;;;;;;19.90;7.75;;;;;;;;;;5055410;28;20048;-84
2022/06/02 03:34:12;;;;;;;13.00;7.50;;;;;;;;;;5055091;28;20477;-83
2022/06/02 03:37:18;;;;;;;14.82;7.47;;;;;;;;;;5047061;28;20049;-82
2022/06/02 03:40:09;;;;;;;14.02;7.30;;;;;;;;;;5056046;28;20203;-85
2022/06/02 03:43:13;;;;;;;10.48;7.28;;;;;;;;;;5054199;28;20056;-83
2022/06/02 03:46:12;;;;;;;18.38;7.53;;;;;;;;;;5055436;28;20485;-85
2022/06/02 03:49:41;;;;;;;15.95;6.70;;;;;;;;;;5054661;28;20041;-82
2022/06/02 03:52:49;;;;;;;12.70;6.68;;;;;;;;;;5052992;28;20041;-84
2022/06/02 03:55:48;;;;;;;14.98;6.80;;;;;;;;;;5053140;28;20401;-85
2022/06/02 03:58:56;;;;;;;11.88;6.53;;;;;;;;;;5035013;28;20057;-85
2022/06/02 04:01:50;;;;;;;9.43;7.03;;;;;;;;;;5064019;28;20041;-86
2022/06/02 04:04:59;;;;;;;10.88;6.63;;;;;;;;;;5057265;28;20493;-83
2022/06/02 04:08:12;;;;;;;13.80;7.00;;;;;;;;;;5055752;28;20040;-84
2022/06/02 04:13:37;;;;;;;13.43;6.63;;;;;;;;;;5063120;28;20408;-83
2022/06/02 04:14:53;;;;;;;13.05;6.53;;;;;;;;;;5058908;28;20067;-82
2022/06/02 04:17:46;;;;;;;13.75;7.13;;;;;;;;;;5060547;28;20037;-85
2022/06/02 04:21:14;;;;;;;15.20;7.40;;;;;;;;;;5054679;28;20057;-86
2022/06/02 04:24:18;;;;;;;10.57;6.93;;;;;;;;;;5045015;28;20049;-85
2022/06/02 04:27:24;;;;;;;9.82;6.85;;;;;;;;;;5054184;28;20045;-84
2022/06/02 04:30:40;;;;;;;11.63;6.82;;;;;;;;;;5053933;28;20421;-83
2022/06/02 04:33:36;;;;;;;13.82;6.93;;;;;;;;;;5053913;28;20501;-82
2022/06/02 04:36:44;;;;;;;13.20;6.63;;;;;;;;;;5026621;28;20054;-85
2022/06/02 04:39:45;;;;;;;17.70;6.68;;;;;;;;;;5049191;28;20052;-85
2022/06/02 04:42:53;;;;;;;12.48;5.95;;;;;;;;;;5039223;28;20466;-83
2022/06/02 04:46:03;;;;;;;13.32;6.72;;;;;;;;;;5045261;28;20053;-85
2022/06/02 04:49:09;;;;;;;11.73;6.25;;;;;;;;;;5054024;28;20425;-85
2022/06/02 04:52:11;;;;;;;15.00;6.38;;;;;;;;;;5053417;28;20050;-84
2022/06/02 04:55:05;;;;;;;13.02;6.53;;;;;;;;;;5038576;28;20040;-83
2022/06/02 04:58:01;;;;;;;13.77;6.70;;;;;;;;;;5053422;28;20041;-83
2022/06/02 05:01:06;;;;;;;17.08;7.03;;;;;;;;;;5054992;28;20477;-84
2022/06/02 05:04:20;;;;;;;13.63;7.20;;;;;;;;;;5052249;28;20052;-83
2022/06/02 05:07:12;;;;;;;15.20;7.03;;;;;;;;;;5037014;28;20037;-80
2022/06/02 05:10:11;;;;;;;13.27;5.88;;;;;;;;;;5059569;28;20041;-82
2022/06/02 05:13:14;;;;;;;14.18;6.65;;;;;;;;;;5052799;28;20053;-80
2022/06/02 05:16:06;;;;;;;14.18;6.22;;;;;;;;;;5058900;28;20041;-83
2022/06/02 05:19:13;;;;;;;13.35;5.70;;;;;;;;;;5053450;28;20044;-82
2022/06/02 05:22:24;;;;;;;13.60;5.70;;;;;;;;;;5053462;28;20037;-81
2022/06/02 05:25:18;;;;;;;9.02;5.82;;;;;;;;;;5026972;28;20049;-83
2022/06/02 05:28:42;;;;;;;20.38;5.50;;;;;;;;;;5053427;28;20049;-83
2022/06/02 05:31:33;;;;;;;14.38;5.65;;;;;;;;;;5053708;28;20041;-82
2022/06/02 05:34:44;;;;;;;11.57;5.22;;;;;;;;;;5037665;28;20049;-82
2022/06/02 05:37:45;;;;;;;15.02;5.53;;;;;;;;;;5060426;28;20045;-81
2022/06/02 05:41:02;;;;;;;11.68;4.60;;;;;;;;;;5052647;28;20036;-80
2022/06/02 05:44:14;;;;;;;14.18;4.55;;;;;;;;;;5059935;28;20049;-84
2022/06/02 05:47:18;;;;;;;10.43;4.25;;;;;;;;;;5053388;28;20053;-83
2022/06/02 05:50:29;;;;;;;10.88;4.70;;;;;;;;;;5053633;28;20041;-83
2022/06/02 05:53:33;;;;;;;9.43;4.80;;;;;;;;;;5053100;28;20040;-83
2022/06/02 05:56:32;;;;;;;9.68;4.40;;;;;;;;;;5057439;28;20401;-81
2022/06/02 05:59:20;;;;;;;14.13;5.35;;;;;;;;;;5041768;28;20044;-83
2022/06/02 06:02:29;;;;;;;8.82;4.05;;;;;;;;;;5048621;28;20053;-83
2022/06/02 06:05:24;;;;;;;12.27;4.68;;;;;;;;;;5033343;28;20061;-81
2022/06/02 06:08:53;;;;;;;10.95;4.88;;;;;;;;;;5024590;28;20045;-81
2022/06/02 06:12:06;;;;;;;13.63;4.78;;;;;;;;;;4972841;28;20054;-83
2022/06/02 06:14:56;;;;;;;13.93;4.25;;;;;;;;;;4972261;28;20050;-83
2022/06/02 06:18:01;;;;;;;12.60;4.88;;;;;;;;;;5035973;28;20042;-82
2022/06/02 06:21:28;;;;;;;10.38;5.20;;;;;;;;;;5022894;28;20501;-80
2022/06/02 06:24:24;;;;;;;10.95;4.97;;;;;;;;;;5016328;28;20045;-83
2022/06/02 06:27:32;;;;;;;10.00;4.75;;;;;;;;;;5036647;28;20041;-82
2022/06/02 06:30:24;;;;;;;36.05;6.00;;;;;;;;;;5042942;28;20053;-83
2022/06/02 06:33:16;;;;;;;14.27;5.22;;;;;;;;;;5035887;28;20049;-81
2022/06/02 06:36:53;;;;;;;10.50;4.75;;;;;;;;;;5036536;28;20033;-81
2022/06/02 06:40:03;;;;;;;9.20;4.60;;;;;;;;;;5010430;28;20041;-81
2022/06/02 06:43:26;;;;;;;11.10;4.65;;;;;;;;;;5023921;28;20049;-82
2022/06/02 06:46:31;;;;;;;10.75;4.50;;;;;;;;;;5042229;28;20482;-80
2022/06/02 06:49:18;;;;;;;13.93;4.85;;;;;;;;;;5036400;28;20049;-82
2022/06/02 06:52:20;;;;;;;16.10;4.90;;;;;;;;;;5036333;28;20045;-83
2022/06/02 06:55:35;;;;;;;10.50;4.55;;;;;;;;;;5035719;28;20405;-81
2022/06/02 06:58:42;;;;;;;8.35;4.88;;;;;;;;;;5030965;28;20397;-81
2022/06/02 07:01:36;;;;;;;10.35;4.53;;;;;;;;;;5036150;28;20478;-81
2022/06/02 07:04:32;;;;;;;13.90;4.85;;;;;;;;;;5035574;28;20045;-81
2022/06/02 07:07:39;;;;;;;7.90;4.57;;;;;;;;;;5036269;28;20045;-82
2022/06/02 07:10:51;;;;;;;14.43;5.25;;;;;;;;;;5035879;28;20418;-82
2022/06/02 07:13:47;;;;;;;12.07;5.20;;;;;;;;;;5035772;28;20432;-81
2022/06/02 07:16:47;;;;;;;9.57;4.13;;;;;;;;;;5036100;28;20053;-84
2022/06/02 07:19:50;;;;;;;11.23;5.13;;;;;;;;;;5035274;28;20046;-83
2022/06/02 07:23:00;;;;;;;10.75;5.00;;;;;;;;;;5042778;28;20482;-82
2022/06/02 07:26:01;;;;;;;18.48;5.90;;;;;;;;;;5035363;28;20482;-82
2022/06/02 07:29:05;;;;;;;8.60;5.38;;;;;;;;;;5035490;28;20057;-82
2022/06/02 07:32:20;;;;;;;10.48;4.95;;;;;;;;;;5027836;28;20042;-83
2022/06/02 07:35:43;;;;;;;9.27;5.05;;;;;;;;;;5035229;28;20049;-82
2022/06/02 07:38:52;;;;;;;12.82;5.80;;;;;;;;;;5035677;28;20037;-80
2022/06/02 07:41:54;;;;;;;12.98;5.38;;;;;;;;;;5034513;28;20046;-81
2022/06/02 07:45:18;;;;;;;13.32;5.32;;;;;;;;;;5036328;28;20049;-83
2022/06/02 07:48:22;;;;;;;13.57;5.43;;;;;;;;;;5010160;28;20116;-81
2022/06/02 07:51:22;;;;;;;7.30;4.93;;;;;;;;;;5037270;28;20038;-82
2022/06/02 07:54:27;;;;;;;19.42;5.70;;;;;;;;;;5036471;28;20045;-84
2022/06/02 07:57:38;;;;;;;10.05;5.80;;;;;;;;;;5035866;28;20049;-82
2022/06/02 08:00:31;;;;;;;13.63;5.88;;;;;;;;;;5026830;28;20046;-81
2022/06/02 08:03:27;;;;;;;9.70;5.68;;;;;;;;;;5036331;28;20045;-84
2022/06/02 08:06:39;;;;;;;13.90;5.35;;;;;;;;;;5036587;28;20061;-82
2022/06/02 08:09:36;;;;;;;13.27;5.93;;;;;;;;;;5035990;28;20045;-84
2022/06/02 08:12:32;;;;;;;16.80;5.65;;;;;;;;;;5035380;28;20478;-83
2022/06/02 08:15:29;;;;;;;13.88;5.53;;;;;;;;;;5034474;28;20051;-81
2022/06/02 08:18:21;;;;;;;11.68;4.88;;;;;;;;;;5035192;28;20057;-84
2022/06/02 08:21:20;;;;;;;7.88;4.53;;;;;;;;;;5034636;28;20053;-82
2022/06/02 08:24:15;;;;;;;13.23;4.82;;;;;;;;;;5034892;28;20045;-82
2022/06/02 08:27:38;;;;;;;14.77;5.00;;;;;;;;;;5034650;28;20049;-84
2022/06/02 08:30:40;;;;;;;14.60;5.20;;;;;;;;;;5034529;28;20049;-82
2022/06/02 08:33:57;;;;;;;12.45;4.80;;;;;;;;;;5034103;28;20394;-83
2022/06/02 08:37:04;;;;;;;12.30;4.70;;;;;;;;;;5026260;28;20053;-85
2022/06/02 08:40:18;;;;;;;10.55;4.65;;;;;;;;;;5033223;28;20041;-85
2022/06/02 08:43:27;;;;;;;13.15;4.90;;;;;;;;;;5034366;28;20053;-82
2022/06/02 08:46:36;;;;;;;12.82;4.45;;;;;;;;;;5034708;28;20501;-85
2022/06/02 08:49:31;;;;;;;12.23;4.80;;;;;;;;;;5026470;28;20053;-83
2022/06/02 08:53:03;;;;;;;10.95;4.55;;;;;;;;;;5034085;28;20033;-85
2022/06/02 08:56:06;;;;;;;17.83;5.10;;;;;;;;;;5034433;28;20041;-81
2022/06/02 08:59:12;;;;;;;10.77;4.38;;;;;;;;;;5034434;28;20049;-83
2022/06/02 09:02:19;;;;;;;11.98;4.55;;;;;;;;;;5040325;28;20478;-82
2022/06/02 09:05:42;;;;;;;14.15;4.22;;;;;;;;;;5040535;28;20053;-86
2022/06/02 09:08:38;;;;;;;17.77;5.35;;;;;;;;;;5033817;28;20041;-80
2022/06/02 09:11:37;;;;;;;17.17;4.75;;;;;;;;;;5033260;28;20056;-87
2022/06/02 09:14:37;;;;;;;14.05;3.85;;;;;;;;;;5025822;28;20476;-86
2022/06/02 09:17:43;;;;;;;16.48;4.20;;;;;;;;;;5025808;28;20494;-87
2022/06/02 09:21:01;;;;;;;8.43;4.32;;;;;;;;;;5019181;28;20041;-88
2022/06/02 09:24:08;;;;;;;9.73;4.32;;;;;;;;;;5012302;28;20041;-85
2022/06/02 09:27:31;;;;;;;12.75;4.38;;;;;;;;;;5034461;28;20058;-84
2022/06/02 09:30:51;;;;;;;8.13;3.80;;;;;;;;;;5025416;28;20045;-88
2022/06/02 09:34:07;;;;;;;11.50;3.80;;;;;;;;;;5012603;28;20053;-85
2022/06/02 09:37:44;;;;;;;21.27;4.40;;;;;;;;;;5018851;28;20053;-84
2022/06/02 09:40:41;;;;;;;12.40;3.92;;;;;;;;;;4973316;28;20099;-87
2022/06/02 09:43:55;;;;;;;10.55;3.88;;;;;;;;;;4972282;28;20258;-84
2022/06/02 09:47:03;;;;;;;9.80;4.85;;;;;;;;;;4958549;28;20054;-85
2022/06/02 09:50:07;;;;;;;9.77;3.90;;;;;;;;;;4965889;28;20047;-87
2022/06/02 09:53:26;;;;;;;14.77;4.63;;;;;;;;;;5037138;28;20395;-88
2022/06/02 09:56:25;;;;;;;7.18;3.40;;;;;;;;;;5015299;28;20401;-84
2022/06/02 09:59:28;;;;;;;12.63;4.15;;;;;;;;;;5028776;28;20425;-85
2022/06/02 10:02:50;;;;;;;8.48;3.60;;;;;;;;;;5028898;28;20041;-86
2022/06/02 10:06:12;;;;;;;12.60;4.50;;;;;;;;;;5022363;28;20053;-87
2022/06/02 10:09:10;;;;;;;10.60;4.57;;;;;;;;;;5037159;28;20045;-88
2022/06/02 10:15:30;;;;;;;10.15;4.00;;;;;;;;;;5037304;28;20041;-84
2022/06/02 10:18:45;;;;;;;8.73;3.58;;;;;;;;;;5028402;28;20057;-84
2022/06/02 10:22:09;;;;;;;17.30;4.10;;;;;;;;;;5014439;28;20482;-84
2022/06/02 10:25:22;;;;;;;8.60;4.00;;;;;;;;;;5000691;28;20053;-89
2022/06/02 10:28:33;;;;;;;12.55;4.45;;;;;;;;;;5030801;28;20056;-86
2022/06/02 10:31:37;;;;;;;6.40;2.95;;;;;;;;;;5030708;28;20474;-84
2022/06/02 10:34:38;;;;;;;9.00;3.63;;;;;;;;;;5028000;28;20046;-88
2022/06/02 10:37:42;;;;;;;11.98;3.88;;;;;;;;;;5014908;28;20046;-89
2022/06/02 10:40:40;;;;;;;12.07;4.35;;;;;;;;;;5036257;28;20037;-89
2022/06/02 10:43:45;;;;;;;5.53;3.35;;;;;;;;;;5007619;28;20493;-84
2022/06/02 10:47:13;;;;;;;14.95;3.80;;;;;;;;;;5028656;28;20045;-84
2022/06/02 10:50:35;;;;;;;13.75;4.20;;;;;;;;;;5013785;28;20482;-86
2022/06/02 10:53:47;;;;;;;16.42;5.32;;;;;;;;;;5042337;28;20136;-87
2022/06/02 10:57:03;;;;;;;13.23;4.20;;;;;;;;;;5027948;28;20474;-89
2022/06/02 11:00:04;;;;;;;10.88;4.70;;;;;;;;;;5028101;28;20057;-85
2022/06/02 11:03:18;;;;;;;11.55;4.25;;;;;;;;;;5026648;28;20041;-85
2022/06/02 11:06:37;;;;;;;8.38;3.97;;;;;;;;;;5014567;28;20049;-85
2022/06/02 11:10:00;;;;;;;12.65;4.97;;;;;;;;;;5035828;28;20037;-88
2022/06/02 11:13:23;;;;;;;10.32;4.32;;;;;;;;;;5027812;28;20057;-88
2022/06/02 11:16:49;;;;;;;13.88;4.70;;;;;;;;;;5021771;28;20041;-89
2022/06/02 11:20:13;;;;;;;11.82;4.50;;;;;;;;;;5005666;28;20094;-89
2022/06/02 11:23:23;;;;;;;12.15;4.03;;;;;;;;;;5040832;28;20045;-90
2022/06/02 11:26:12;;;;;;;8.32;3.65;;;;;;;;;;5030376;28;20052;-87
2022/06/02 11:29:32;;;;;;;13.75;4.15;;;;;;;;;;5043255;28;20045;-85
2022/06/02 11:36:13;;;;;;;11.85;4.20;;;;;;;;;;5060642;28;20045;-86
2022/06/02 11:39:43;;;;;;;13.68;4.30;;;;;;;;;;5077540;22;20064;-78
2022/06/02 11:42:55;;;;;;;10.88;4.25;;;;;;;;;;5053807;28;20053;-74
2022/06/02 11:45:54;;;;;;;9.98;3.70;;;;;;;;;;5061674;28;20041;-74
2022/06/02 11:49:14;;;;;;;11.77;4.40;;;;;;;;;;5061560;28;20390;-76
2022/06/02 11:52:31;;;;;;;9.55;3.75;;;;;;;;;;5055177;28;20049;-75
2022/06/02 11:55:49;;;;;;;10.00;3.88;;;;;;;;;;5060516;28;20053;-75
2022/06/02 11:58:44;;;;;;;8.50;3.60;;;;;;;;;;5054732;28;20049;-76
2022/06/02 12:01:49;;;;;;;14.60;4.57;;;;;;;;;;5063207;28;20048;-78
2022/06/02 12:04:52;;;;;;;;;;;;;;;;;;5064409;28;20041;-78
2022/06/02 12:07:40;;;;;;;9.00;4.30;;;;;;;;;;5061190;28;19917;-78
2022/06/02 12:10:54;;;;;;;11.75;4.32;;;;;;;;;;5060958;28;20044;-78
2022/06/02 12:14:26;;;;;;;6.88;3.67;;;;;;;;;;5060037;28;20045;-78
2022/06/02 12:17:39;;;;;;;10.35;3.90;;;;;;;;;;5032071;28;20404;-78
2022/06/02 12:20:27;;;;;;;12.25;4.10;;;;;;;;;;5054164;28;20048;-78
2022/06/02 12:23:34;;;;;;;12.68;3.95;;;;;;;;;;5053764;28;20041;-79
2022/06/02 12:26:38;;;;;;;7.50;3.88;;;;;;;;;;5054157;28;20394;-78
2022/06/02 12:29:30;;;;;;;;;;;;;;;;;;5061374;28;20040;-77
2022/06/02 12:32:46;;;;;;;13.10;4.43;;;;;;;;;;5054084;28;19917;-78
2022/06/02 12:35:57;;;;;;;12.57;4.47;;;;;;;;;;5053825;28;20041;-78
2022/06/02 12:39:12;;;;;;;10.52;4.22;;;;;;;;;;5061152;28;20057;-80
2022/06/02 12:42:16;;;;;;;12.70;4.75;;;;;;;;;;5054907;28;20553;-81
2022/06/02 12:45:33;;;;;;;15.25;4.57;;;;;;;;;;5054464;28;20041;-80
2022/06/02 12:48:51;;;;;;;11.40;4.20;;;;;;;;;;5054375;28;20049;-78
2022/06/02 12:51:58;;;;;;;10.50;4.15;;;;;;;;;;5065660;28;20037;-83
2022/06/02 12:55:18;;;;;;;9.55;4.40;;;;;;;;;;5055223;28;20470;-83
2022/06/02 12:58:41;;;;;;;11.43;4.35;;;;;;;;;;5056691;28;20053;-84
2022/06/02 13:01:50;;;;;;;12.63;4.60;;;;;;;;;;5056830;28;20366;-84
2022/06/02 13:05:03;;;;;;;12.20;4.22;;;;;;;;;;5039534;28;20045;-84
2022/06/02 13:08:26;;;;;;;9.55;4.03;;;;;;;;;;5055977;28;20397;-84
2022/06/02 13:11:58;;;;;;;13.00;4.25;;;;;;;;;;5055815;28;20037;-83
2022/06/02 13:15:05;;;;;;;9.43;4.22;;;;;;;;;;4975505;28;20055;-80
2022/06/02 13:18:08;;;;;;;12.35;4.85;;;;;;;;;;4983147;28;20416;-84
2022/06/02 13:21:26;;;;;;;11.60;4.95;;;;;;;;;;5060229;28;20496;-81
2022/06/02 13:24:40;;;;;;;14.95;4.50;;;;;;;;;;5054957;28;20422;-82
2022/06/02 13:27:30;;;;;;;10.63;4.13;;;;;;;;;;5059230;28;20052;-80
2022/06/02 13:30:18;;;;;;;14.20;4.65;;;;;;;;;;5060226;28;20053;-79
2022/06/02 13:33:32;;;;;;;9.40;5.00;;;;;;;;;;5065921;28;20040;-84
2022/06/02 13:36:31;;;;;;;10.43;4.60;;;;;;;;;;5064769;28;20053;-84
2022/06/02 13:39:46;;;;;;;11.80;5.10;;;;;;;;;;5057667;28;20533;-81
2022/06/02 13:42:59;;;;;;;14.13;5.32;;;;;;;;;;5066046;28;20041;-81
2022/06/02 13:45:45;;;;;;;10.02;5.05;;;;;;;;;;5065091;28;20056;-81
2022/06/02 13:48:33;;;;;;;16.52;5.60;;;;;;;;;;5058542;28;20041;-82
2022/06/02 13:51:41;;;;;;;8.90;4.95;;;;;;;;;;5043529;28;20397;-80
2022/06/02 13:58:13;;;;;;;13.25;5.80;;;;;;;;;;5064371;28;20045;-81
2022/06/02 14:01:19;;;;;;;10.38;5.90;;;;;;;;;;5058363;28;20037;-84
2022/06/02 14:04:36;;;;;;;15.23;5.30;;;;;;;;;;5067114;28;20045;-81
2022/06/02 14:07:43;;;;;;;13.52;5.38;;;;;;;;;;5037565;28;20394;-80
2022/06/02 14:10:47;;;;;;;8.68;4.88;;;;;;;;;;5074394;28;20053;-80
2022/06/02 14:14:06;;;;;;;15.65;5.60;;;;;;;;;;5053398;28;20398;-81
2022/06/02 14:17:30;;;;;;;11.05;4.63;;;;;;;;;;5066142;28;20049;-80
2022/06/02 14:20:32;;;;;;;14.18;5.03;;;;;;;;;;5023645;28;20052;-83
2022/06/02 14:23:42;;;;;;;13.35;4.97;;;;;;;;;;5058167;28;20490;-82
2022/06/02 14:26:36;;;;;;;10.57;4.13;;;;;;;;;;5058974;28;20045;-80
2022/06/02 14:29:46;;;;;;;11.87;3.90;;;;;;;;;;5069091;28;20471;-80
2022/06/02 14:32:53;;;;;;;14.70;4.50;;;;;;;;;;5063865;28;20290;-78
2022/06/02 14:35:53;;;;;;;15.05;4.10;;;;;;;;;;5064705;28;20048;-80
2022/06/02 14:39:07;;;;;;;16.00;4.70;;;;;;;;;;5056846;28;20033;-79
2022/06/02 14:42:16;;;;;;;16.25;3.95;;;;;;;;;;5056461;28;20049;-79
2022/06/02 14:45:12;;;;;;;11.57;3.97;;;;;;;;;;5056618;28;20044;-80
2022/06/02 14:47:57;;;;;;;12.52;4.10;;;;;;;;;;5056472;28;20479;-80
2022/06/02 14:51:07;;;;;;;9.50;4.20;;;;;;;;;;5067873;28;20040;-83
2022/06/02 14:54:03;;;;;;;7.18;3.65;;;;;;;;;;5057652;28;20041;-86
2022/06/02 14:57:09;;;;;;;13.10;4.22;;;;;;;;;;5051573;28;20041;-83
2022/06/02 15:00:01;;;;;;;10.80;4.05;;;;;;;;;;5071760;28;20037;-81
2022/06/02 15:03:39;;;;;;;10.75;3.78;;;;;;;;;;5068044;28;20040;-83
2022/06/02 15:06:47;;;;;;;10.95;3.72;;;;;;;;;;5037010;28;20482;-82
2022/06/02 15:09:56;;;;;;;9.48;4.13;;;;;;;;;;5066854;28;20041;-82
2022/06/02 15:13:13;;;;;;;11.38;3.55;;;;;;;;;;5056023;28;20398;-84
2022/06/02 15:16:23;;;;;;;7.95;3.72;;;;;;;;;;5056468;28;20049;-83
2022/06/02 15:19:33;;;;;;;8.82;3.95;;;;;;;;;;5046773;28;20049;-83
2022/06/02 15:22:40;;;;;;;8.15;4.03;;;;;;;;;;5047882;28;20041;-80
2022/06/02 15:25:38;;;;;;;7.22;3.53;;;;;;;;;;5058483;28;20060;-81
2022/06/02 15:29:06;;;;;;;7.22;3.50;;;;;;;;;;5060764;28;20052;-81
2022/06/02 15:32:02;;;;;;;9.57;4.18;;;;;;;;;;5057632;28;20045;-81
2022/06/02 15:35:06;;;;;;;11.05;4.38;;;;;;;;;;5062346;28;20053;-79
2022/06/02 15:38:11;;;;;;;;;;;;;;;;;;5056431;28;20052;-78
2022/06/02 15:41:29;;;;;;;9.30;4.07;;;;;;;;;;5059231;28;19921;-79
2022/06/02 15:44:25;;;;;;;7.10;3.60;;;;;;;;;;5062469;28;20410;-80
2022/06/02 15:47:39;;;;;;;9.80;4.30;;;;;;;;;;5055696;28;20052;-79
2022/06/02 15:50:51;;;;;;;10.88;3.95;;;;;;;;;;5027633;28;20052;-79
2022/06/02 15:54:09;;;;;;;9.88;4.10;;;;;;;;;;5056896;28;20048;-80
2022/06/02 15:57:03;;;;;;;10.40;3.80;;;;;;;;;;5028559;28;20497;-79
2022/06/02 16:00:24;;;;;;;12.00;4.07;;;;;;;;;;5055169;28;20402;-81
2022/06/02 16:03:33;;;;;;;7.20;3.65;;;;;;;;;;5054595;28;20049;-81
2022/06/02 16:06:40;;;;;;;11.82;3.80;;;;;;;;;;5053918;28;20049;-82
2022/06/02 16:13:03;;;;;;;9.75;4.13;;;;;;;;;;5054676;28;20048;-79
2022/06/02 16:16:19;;;;;;;9.30;3.33;;;;;;;;;;5054610;28;20037;-80
2022/06/02 16:19:06;;;;;;;9.52;3.90;;;;;;;;;;5061364;28;20041;-82
2022/06/02 16:22:16;;;;;;;9.40;3.90;;;;;;;;;;5054462;28;20048;-79
2022/06/02 16:25:51;;;;;;;9.85;4.20;;;;;;;;;;5054610;28;20415;-80
2022/06/02 16:29:04;;;;;;;12.48;4.07;;;;;;;;;;5008835;28;20049;-80
2022/06/02 16:32:05;;;;;;;13.57;4.47;;;;;;;;;;5069189;28;20052;-80
2022/06/02 16:35:02;;;;;;;11.40;4.85;;;;;;;;;;5056039;28;20056;-80
2022/06/02 16:38:18;;;;;;;9.60;5.38;;;;;;;;;;5061113;28;20033;-79
2022/06/02 16:41:15;;;;;;;12.40;6.22;;;;;;;;;;5057295;28;20402;-80
2022/06/02 16:44:26;;;;;;;9.38;6.43;;;;;;;;;;5053946;28;20049;-79
2022/06/02 16:47:33;;;;;;;13.55;6.20;;;;;;;;;;5053938;28;20048;-80
2022/06/02 16:50:50;;;;;;;9.88;6.47;;;;;;;;;;5053956;28;20041;-80
2022/06/02 16:53:54;;;;;;;10.55;6.68;;;;;;;;;;5061135;28;20213;-79
2022/06/02 16:56:56;;;;;;;18.80;6.32;;;;;;;;;;5053746;28;20037;-80
2022/06/02 16:59:59;;;;;;;16.77;6.55;;;;;;;;;;5053395;28;20041;-79
2022/06/02 17:03:06;;;;;;;16.63;6.78;;;;;;;;;;5060542;28;20036;-79
2022/06/02 17:06:31;;;;;;;13.20;6.90;;;;;;;;;;5060707;28;20041;-79
2022/06/02 17:09:41;;;;;;;13.00;7.00;;;;;;;;;;5060174;28;20053;-80
2022/06/02 17:12:45;;;;;;;9.45;6.20;;;;;;;;;;5053488;28;20282;-79
2022/06/02 17:15:56;;;;;;;14.35;7.38;;;;;;;;;;5053201;28;20042;-80
2022/06/02 17:19:04;;;;;;;18.40;7.20;;;;;;;;;;5060195;28;20053;-79
2022/06/02 17:22:05;;;;;;;13.93;6.88;;;;;;;;;;5060507;28;20045;-79
2022/06/02 17:25:15;;;;;;;11.30;6.57;;;;;;;;;;5053584;28;20045;-79
2022/06/02 17:28:32;;;;;;;12.07;6.63;;;;;;;;;;5060234;28;20045;-80
2022/06/02 17:31:36;;;;;;;14.15;8.07;;;;;;;;;;5053711;28;20049;-80
2022/06/02 17:35:01;;;;;;;12.38;8.25;;;;;;;;;;5054112;28;20044;-80
2022/06/02 17:38:26;;;;;;;20.42;8.23;;;;;;;;;;5056374;28;20048;-80
2022/06/02 17:41:46;;;;;;;15.98;7.97;;;;;;;;;;5053310;28;20390;-82
2022/06/02 17:44:40;;;;;;;18.25;8.35;;;;;;;;;;4981783;28;20048;-81
2022/06/02 17:47:53;;;;;;;20.45;8.88;;;;;;;;;;5052701;28;20045;-81
2022/06/02 17:50:39;;;;;;;15.93;8.20;;;;;;;;;;5053162;28;20041;-81
2022/06/02 17:53:48;;;;;;;17.67;8.18;;;;;;;;;;5059704;28;20041;-79
2022/06/02 17:56:54;;;;;;;17.73;9.00;;;;;;;;;;5053889;28;20475;-80
2022/06/02 18:00:07;;;;;;;14.07;8.88;;;;;;;;;;5059553;28;20401;-80
2022/06/02 18:03:10;;;;;;;15.73;9.57;;;;;;;;;;5053336;28;20045;-80
2022/06/02 18:06:16;;;;;;;17.10;9.15;;;;;;;;;;5059669;28;20044;-79
2022/06/02 18:09:29;;;;;;;22.70;9.95;;;;;;;;;;5059996;28;20045;-80
2022/06/02 18:12:18;;;;;;;20.55;9.50;;;;;;;;;;5056136;28;20080;-79
2022/06/02 18:15:09;;;;;;;12.70;9.23;;;;;;;;;;5056930;28;20045;-80
2022/06/02 18:18:19;;;;;;;15.25;9.07;;;;;;;;;;5057014;28;20052;-79
2022/06/02 18:21:13;;;;;;;15.82;10.10;;;;;;;;;;5056852;28;20491;-80
2022/06/02 18:24:05;;;;;;;12.20;9.80;;;;;;;;;;5056633;28;20049;-80
2022/06/02 18:27:36;;;;;;;19.65;11.13;;;;;;;;;;5048528;28;20053;-81
2022/06/02 18:30:39;;;;;;;21.27;10.50;;;;;;;;;;5063497;28;20045;-80
2022/06/02 18:33:40;;;;;;;18.75;10.75;;;;;;;;;;5056899;28;20490;-81
2022/06/02 18:36:59;;;;;;;20.55;10.43;;;;;;;;;;5056241;28;20045;-81
2022/06/02 18:40:07;;;;;;;21.55;10.88;;;;;;;;;;5063263;28;20045;-80
2022/06/02 18:43:15;;;;;;;21.20;11.25;;;;;;;;;;5062951;28;20041;-80